»·PEaware :: BADGR11 KEND-KEND

BADGR11 :: KEND-KEND

FLIGHT INFORMATION

Flight Status: Arrived
Operator: Unknown
More flights by this operator :: More flights under this callsign
Pilot: Zack W. (22216)
Aircraft: BEECH AIRCRAFT T-6A TEXAN
(TEX2)
More flights by this aircraft type
Origin: KEND Vance AFB
United States
Destination: KEND Vance AFB
United States
More flights between these airports :: More routes between these airports
Route: +PNC F22 END8
File this flight plan on PilotEdge
Remarks:
Altitude:
(Current/Filed)
0ft
Speed:
(Current/Filed)
0kts
Departed: 30-Sep-20 09:41 AM
Arrived: 30-Sep-20 10:31 AM
Distance/Time
Traveled:
1nm/0:50
Distance/Time
To Go:
Arrived

Flight Plot

Page will automatically refresh every two minutes.

Flight plan parsing failed; only flown route is shown


Map Options




Map Legend


Flown Route
Filed Route
Departure Airport
Arrival Airport
Navaid (VOR, NDB)
Fix

Horizontal Profiles

Position Reports

Time Latitude Longitude Heading Altitude Ground
Speed
30-Sep-20 09:31 36.333580 -97.910081 269 1291ft 0kts
30-Sep-20 09:32 36.333580 -97.910081 269 1291ft 0kts
30-Sep-20 09:33 36.333580 -97.910081 269 1291ft 0kts
30-Sep-20 09:34 36.333580 -97.910081 269 1291ft 0kts
30-Sep-20 09:35 36.333580 -97.910081 269 1291ft 0kts
30-Sep-20 09:36 36.333580 -97.910081 269 1291ft 0kts
30-Sep-20 09:37 36.333580 -97.910081 269 1291ft 0kts
30-Sep-20 09:38 36.333580 -97.910081 269 1291ft 0kts
30-Sep-20 09:39 36.333301 -97.910807 247 1291ft 7kts
30-Sep-20 09:40 36.358266 -97.911184 1 1800ft 188kts
30-Sep-20 09:41 36.417169 -97.905798 25 3983ft 222kts
30-Sep-20 09:42 36.409195 -97.833396 114 5004ft 233kts
30-Sep-20 09:43 36.400861 -97.758076 90 4977ft 222kts
30-Sep-20 09:44 36.381806 -97.685691 113 5041ft 221kts
30-Sep-20 09:45 36.377995 -97.616174 43 5050ft 222kts
30-Sep-20 09:46 36.422603 -97.562209 42 5074ft 223kts
30-Sep-20 09:47 36.463413 -97.505364 45 5575ft 238kts
30-Sep-20 09:48 36.507735 -97.444840 44 5531ft 232kts
30-Sep-20 09:49 36.554655 -97.390409 38 5441ft 227kts
30-Sep-20 09:50 36.603338 -97.337458 40 5577ft 243kts
30-Sep-20 09:51 36.654026 -97.277039 43 5529ft 258kts
30-Sep-20 09:52 36.704010 -97.212513 46 5455ft 262kts
30-Sep-20 09:53 36.737862 -97.138840 86 3472ft 242kts
30-Sep-20 09:54 36.702259 -97.112034 180 2423ft 166kts
30-Sep-20 09:55 36.708924 -97.099109 353 1561ft 135kts
30-Sep-20 09:56 36.746971 -97.099341 358 1809ft 175kts
30-Sep-20 09:57 36.751279 -97.119871 185 2690ft 217kts
30-Sep-20 09:58 36.702240 -97.118835 168 2528ft 116kts
30-Sep-20 09:59 36.721698 -97.099487 0 1014ft 115kts
30-Sep-20 10:00 36.765623 -97.100180 342 2432ft 205kts
30-Sep-20 10:01 36.733711 -97.120815 181 2588ft 200kts
30-Sep-20 10:02 36.681842 -97.137210 230 3720ft 207kts
30-Sep-20 10:03 36.619957 -97.149228 190 4739ft 254kts
30-Sep-20 10:04 36.560884 -97.190836 228 4449ft 236kts
30-Sep-20 10:05 36.511067 -97.231940 195 4509ft 215kts
30-Sep-20 10:06 36.452693 -97.246814 195 4393ft 216kts
30-Sep-20 10:07 36.401066 -97.281715 210 3518ft 212kts
30-Sep-20 10:08 36.343714 -97.299063 186 3155ft 214kts
30-Sep-20 10:09 36.333193 -97.276577 0 2798ft 193kts
30-Sep-20 10:10 36.372674 -97.277177 358 1307ft 127kts
30-Sep-20 10:11 36.408682 -97.281801 259 2518ft 128kts
30-Sep-20 10:12 36.373779 -97.290407 186 2464ft 123kts
30-Sep-20 10:13 36.356005 -97.276880 14 1814ft 137kts
30-Sep-20 10:14 36.392970 -97.277052 1 1248ft 162kts
30-Sep-20 10:15 36.445583 -97.276543 356 3845ft 207kts
30-Sep-20 10:16 36.466135 -97.330847 269 4679ft 230kts
30-Sep-20 10:17 36.464922 -97.411747 271 4448ft 235kts
30-Sep-20 10:18 36.464928 -97.492573 256 5406ft 242kts
30-Sep-20 10:19 36.438627 -97.570943 242 6086ft 250kts
30-Sep-20 10:20 36.412057 -97.649107 251 6054ft 246kts
30-Sep-20 10:21 36.389408 -97.730002 251 6028ft 244kts
30-Sep-20 10:22 36.356318 -97.797341 181 6089ft 251kts
30-Sep-20 10:23 36.286232 -97.806597 188 5095ft 252kts
30-Sep-20 10:24 36.219431 -97.818325 203 3620ft 243kts
30-Sep-20 10:25 36.203812 -97.887775 268 2329ft 213kts
30-Sep-20 10:26 36.256405 -97.906232 358 2422ft 217kts
30-Sep-20 10:27 36.319141 -97.910808 358 2306ft 231kts
30-Sep-20 10:28 36.330358 -97.895903 176 2406ft 122kts
30-Sep-20 10:29 36.331301 -97.910914 359 1341ft 116kts
30-Sep-20 10:30 36.347010 -97.910003 77 1279ft 13kts

Navigation Log

Ident Type
Flight plan parsing failed, navigation log unavailable